Hlavní strana
METAR-TAF:

METAR-TAF

Letiště :

Letiště Odense

Odense, Dánsko

zeměpisná šířka: 55-29N, zeměpisná délka: 010-20E, výška: 17 m

Aktuální stav počasí

Zpráva byla vytvořena před 27 minutami, v 11:50 UTC
Východní vítr 25 kt s nárazy do 43 kt, proměnlivý mezi východním a jihovýchodním
Teplota 16°C
Vlhkost vzduchu 31%
Tlak 1014 hPa
Viditelnost 10 km a více
Žádná oblačnost pod 1500 m, nevyskytují se cumulonimby.

METAR: EKOD 231150Z 10025G43KT 080V140 CAVOK 16/M01 Q1014

Čas: 14:17 (12:17 UTC)

Předpověď počasí

Zpráva byla vytvořena před 18 minutami, v 11:59 UTC
Předpověď platná od 23 v 12 UTC do 23 v 17 UTC
Východojihovýchodní vítr 25 kt s nárazy do 42 kt
Viditelnost 10 km a více
Žádná oblačnost pod 1500 m, nevyskytují se cumulonimby.
Dočasný
od 23 v 12 UTC do 23 v 17 UTC
Východojihovýchodní vítr 18 kt

TAF: EKOD 231159Z 2312/2317 11025G42KT CAVOK TEMPO 2312/2317 11018KT

Stav a předpovědi počasí z více než 4 000 letišť (zprávy METAR a TAF).

Červené a žluté tečky na mapě představují dostupné meteorologické stanice.

Když kurzor umístíte na tečku, zobrazí se název stanice.

Pak kliknutím zobrazíte stav a předpověď počasí.

Chcete-li změnit mapu, kliknutím na zelené tlačítko se znaménkem +mapu přiblížíte, kliknutím na zelené tlačítko se znaménkem – mapu oddálíte a kliknutím na zelené šipky přejdete na sousední mapy.


METAR-TAF: